sensor_id;sensor_type;location;lat;lon;timestamp;P1;durP1;ratioP1;P2;durP2;ratioP2
42586;SDS011;28216;53.362;-6.288;2023-03-24T00:25:28;11.98;;;2.30;;
42586;SDS011;28216;53.362;-6.288;2023-03-24T00:28:03;14.23;;;2.75;;
42586;SDS011;28216;53.362;-6.288;2023-03-24T00:30:31;15.80;;;2.40;;
42586;SDS011;28216;53.362;-6.288;2023-03-24T00:32:57;12.15;;;2.35;;
42586;SDS011;28216;53.362;-6.288;2023-03-24T00:35:43;10.65;;;2.20;;
42586;SDS011;28216;53.362;-6.288;2023-03-24T00:48:04;9.07;;;1.90;;
42586;SDS011;28216;53.362;-6.288;2023-03-24T01:21:23;8.38;;;2.42;;
42586;SDS011;28216;53.362;-6.288;2023-03-24T01:34:08;12.00;;;2.63;;
42586;SDS011;28216;53.362;-6.288;2023-03-24T03:29:58;10.63;;;1.95;;
42586;SDS011;28216;53.362;-6.288;2023-03-24T04:48:22;17.42;;;3.22;;
42586;SDS011;28216;53.362;-6.288;2023-03-24T04:50:55;14.85;;;2.80;;
42586;SDS011;28216;53.362;-6.288;2023-03-24T04:56:52;14.30;;;2.58;;
42586;SDS011;28216;53.362;-6.288;2023-03-24T05:13:02;16.98;;;2.80;;
42586;SDS011;28216;53.362;-6.288;2023-03-24T05:29:03;14.25;;;2.90;;
42586;SDS011;28216;53.362;-6.288;2023-03-24T05:31:29;13.63;;;2.63;;
42586;SDS011;28216;53.362;-6.288;2023-03-24T05:33:54;18.30;;;2.67;;
42586;SDS011;28216;53.362;-6.288;2023-03-24T05:39:44;20.83;;;3.17;;
42586;SDS011;28216;53.362;-6.288;2023-03-24T05:48:53;15.23;;;2.45;;
42586;SDS011;28216;53.362;-6.288;2023-03-24T05:51:21;13.48;;;2.45;;
42586;SDS011;28216;53.362;-6.288;2023-03-24T05:59:35;19.92;;;2.80;;
42586;SDS011;28216;53.362;-6.288;2023-03-24T06:02:02;10.82;;;3.13;;
42586;SDS011;28216;53.362;-6.288;2023-03-24T06:04:27;16.23;;;2.90;;
42586;SDS011;28216;53.362;-6.288;2023-03-24T06:06:54;13.98;;;2.95;;
42586;SDS011;28216;53.362;-6.288;2023-03-24T06:09:27;15.30;;;2.65;;
42586;SDS011;28216;53.362;-6.288;2023-03-24T06:15:18;16.90;;;2.80;;
42586;SDS011;28216;53.362;-6.288;2023-03-24T06:17:44;13.63;;;2.90;;
42586;SDS011;28216;53.362;-6.288;2023-03-24T06:20:10;15.43;;;3.00;;
42586;SDS011;28216;53.362;-6.288;2023-03-24T06:22:41;15.68;;;3.10;;
42586;SDS011;28216;53.362;-6.288;2023-03-24T06:25:09;15.07;;;2.47;;
42586;SDS011;28216;53.362;-6.288;2023-03-24T06:27:35;14.05;;;2.78;;
42586;SDS011;28216;53.362;-6.288;2023-03-24T06:30:01;18.08;;;2.95;;
42586;SDS011;28216;53.362;-6.288;2023-03-24T06:32:27;14.88;;;2.97;;
42586;SDS011;28216;53.362;-6.288;2023-03-24T06:34:53;15.00;;;3.17;;
42586;SDS011;28216;53.362;-6.288;2023-03-24T06:37:21;16.10;;;2.92;;
42586;SDS011;28216;53.362;-6.288;2023-03-24T06:43:10;16.80;;;2.95;;
42586;SDS011;28216;53.362;-6.288;2023-03-24T06:45:35;17.02;;;2.90;;
42586;SDS011;28216;53.362;-6.288;2023-03-24T06:48:03;16.55;;;3.22;;
42586;SDS011;28216;53.362;-6.288;2023-03-24T06:50:28;18.05;;;2.97;;
42586;SDS011;28216;53.362;-6.288;2023-03-24T06:52:57;14.63;;;2.80;;
42586;SDS011;28216;53.362;-6.288;2023-03-24T06:55:23;15.90;;;2.92;;
42586;SDS011;28216;53.362;-6.288;2023-03-24T06:57:49;15.52;;;3.33;;
42586;SDS011;28216;53.362;-6.288;2023-03-24T07:00:18;16.52;;;2.60;;
42586;SDS011;28216;53.362;-6.288;2023-03-24T07:02:44;22.17;;;2.95;;
42586;SDS011;28216;53.362;-6.288;2023-03-24T07:07:54;15.93;;;3.07;;
42586;SDS011;28216;53.362;-6.288;2023-03-24T07:10:20;18.52;;;3.35;;
42586;SDS011;28216;53.362;-6.288;2023-03-24T07:12:45;17.42;;;3.10;;
42586;SDS011;28216;53.362;-6.288;2023-03-24T07:15:12;18.77;;;3.63;;
42586;SDS011;28216;53.362;-6.288;2023-03-24T07:17:37;17.73;;;3.45;;
42586;SDS011;28216;53.362;-6.288;2023-03-24T07:20:05;16.27;;;3.10;;
42586;SDS011;28216;53.362;-6.288;2023-03-24T07:22:34;14.80;;;2.90;;
42586;SDS011;28216;53.362;-6.288;2023-03-24T07:25:01;21.35;;;3.42;;
42586;SDS011;28216;53.362;-6.288;2023-03-24T07:27:29;17.77;;;3.80;;
42586;SDS011;28216;53.362;-6.288;2023-03-24T07:29:57;16.88;;;4.50;;
42586;SDS011;28216;53.362;-6.288;2023-03-24T07:32:23;16.10;;;3.25;;
42586;SDS011;28216;53.362;-6.288;2023-03-24T07:34:48;16.92;;;3.20;;
42586;SDS011;28216;53.362;-6.288;2023-03-24T07:37:14;13.65;;;3.22;;
42586;SDS011;28216;53.362;-6.288;2023-03-24T07:39:39;12.88;;;3.00;;
42586;SDS011;28216;53.362;-6.288;2023-03-24T07:48:14;16.95;;;3.55;;
42586;SDS011;28216;53.362;-6.288;2023-03-24T07:50:40;16.98;;;4.05;;
42586;SDS011;28216;53.362;-6.288;2023-03-24T07:53:05;18.45;;;3.92;;
42586;SDS011;28216;53.362;-6.288;2023-03-24T07:55:43;21.45;;;7.95;;
42586;SDS011;28216;53.362;-6.288;2023-03-24T07:58:09;20.73;;;7.70;;
42586;SDS011;28216;53.362;-6.288;2023-03-24T08:00:35;17.65;;;6.65;;
42586;SDS011;28216;53.362;-6.288;2023-03-24T08:03:03;14.13;;;4.13;;
42586;SDS011;28216;53.362;-6.288;2023-03-24T08:05:29;18.33;;;5.95;;
42586;SDS011;28216;53.362;-6.288;2023-03-24T08:11:17;18.95;;;6.45;;
42586;SDS011;28216;53.362;-6.288;2023-03-24T08:13:43;18.40;;;4.65;;
42586;SDS011;28216;53.362;-6.288;2023-03-24T08:16:08;14.35;;;3.40;;
42586;SDS011;28216;53.362;-6.288;2023-03-24T08:18:44;10.18;;;2.85;;
42586;SDS011;28216;53.362;-6.288;2023-03-24T08:24:39;15.80;;;3.90;;
42586;SDS011;28216;53.362;-6.288;2023-03-24T08:30:27;26.52;;;9.45;;
42586;SDS011;28216;53.362;-6.288;2023-03-24T08:32:54;40.17;;;16.65;;
42586;SDS011;28216;53.362;-6.288;2023-03-24T08:35:33;33.92;;;12.85;;
42586;SDS011;28216;53.362;-6.288;2023-03-24T08:38:02;43.53;;;17.30;;
42586;SDS011;28216;53.362;-6.288;2023-03-24T08:40:28;41.90;;;17.05;;
42586;SDS011;28216;53.362;-6.288;2023-03-24T08:42:56;36.50;;;15.18;;
42586;SDS011;28216;53.362;-6.288;2023-03-24T08:45:24;22.48;;;9.65;;
42586;SDS011;28216;53.362;-6.288;2023-03-24T08:47:52;20.60;;;6.80;;
42586;SDS011;28216;53.362;-6.288;2023-03-24T08:53:05;18.98;;;3.03;;
42586;SDS011;28216;53.362;-6.288;2023-03-24T09:01:42;14.68;;;3.05;;
42586;SDS011;28216;53.362;-6.288;2023-03-24T09:06:53;13.50;;;3.20;;
42586;SDS011;28216;53.362;-6.288;2023-03-24T09:12:29;17.77;;;3.40;;
42586;SDS011;28216;53.362;-6.288;2023-03-24T09:14:55;16.63;;;2.88;;
42586;SDS011;28216;53.362;-6.288;2023-03-24T09:17:20;14.73;;;2.80;;
42586;SDS011;28216;53.362;-6.288;2023-03-24T09:19:46;17.65;;;2.90;;
42586;SDS011;28216;53.362;-6.288;2023-03-24T09:22:11;13.90;;;2.42;;
42586;SDS011;28216;53.362;-6.288;2023-03-24T09:24:37;14.55;;;3.13;;
42586;SDS011;28216;53.362;-6.288;2023-03-24T09:27:03;16.27;;;3.10;;
42586;SDS011;28216;53.362;-6.288;2023-03-24T09:29:29;14.48;;;3.42;;
42586;SDS011;28216;53.362;-6.288;2023-03-24T09:31:55;13.45;;;2.50;;
42586;SDS011;28216;53.362;-6.288;2023-03-24T09:34:21;10.88;;;2.55;;
42586;SDS011;28216;53.362;-6.288;2023-03-24T09:39:50;12.82;;;2.65;;
42586;SDS011;28216;53.362;-6.288;2023-03-24T09:42:22;13.38;;;2.97;;
42586;SDS011;28216;53.362;-6.288;2023-03-24T09:47:48;16.48;;;2.90;;
42586;SDS011;28216;53.362;-6.288;2023-03-24T09:50:25;11.05;;;2.50;;
42586;SDS011;28216;53.362;-6.288;2023-03-24T09:55:51;10.40;;;2.30;;
42586;SDS011;28216;53.362;-6.288;2023-03-24T09:58:16;14.25;;;3.10;;
42586;SDS011;28216;53.362;-6.288;2023-03-24T10:00:44;11.52;;;2.20;;
42586;SDS011;28216;53.362;-6.288;2023-03-24T10:03:19;10.77;;;2.13;;
42586;SDS011;28216;53.362;-6.288;2023-03-24T10:05:49;9.18;;;2.10;;
42586;SDS011;28216;53.362;-6.288;2023-03-24T10:08:39;12.05;;;2.22;;
42586;SDS011;28216;53.362;-6.288;2023-03-24T10:11:15;8.38;;;1.90;;
42586;SDS011;28216;53.362;-6.288;2023-03-24T10:31:53;10.60;;;2.10;;
42586;SDS011;28216;53.362;-6.288;2023-03-24T10:34:26;10.63;;;2.13;;
42586;SDS011;28216;53.362;-6.288;2023-03-24T10:36:55;10.35;;;1.83;;
42586;SDS011;28216;53.362;-6.288;2023-03-24T10:39:22;6.18;;;1.90;;
42586;SDS011;28216;53.362;-6.288;2023-03-24T10:41:48;8.57;;;1.98;;
42586;SDS011;28216;53.362;-6.288;2023-03-24T10:44:15;11.45;;;2.17;;
42586;SDS011;28216;53.362;-6.288;2023-03-24T10:46:46;9.57;;;1.90;;
42586;SDS011;28216;53.362;-6.288;2023-03-24T10:49:16;6.97;;;1.90;;
42586;SDS011;28216;53.362;-6.288;2023-03-24T10:51:45;11.57;;;2.20;;
42586;SDS011;28216;53.362;-6.288;2023-03-24T10:56:50;9.98;;;2.83;;
42586;SDS011;28216;53.362;-6.288;2023-03-24T11:02:31;9.38;;;3.20;;
42586;SDS011;28216;53.362;-6.288;2023-03-24T11:07:37;13.18;;;4.35;;
42586;SDS011;28216;53.362;-6.288;2023-03-24T11:10:16;10.48;;;3.92;;
42586;SDS011;28216;53.362;-6.288;2023-03-24T11:15:22;10.90;;;2.95;;
42586;SDS011;28216;53.362;-6.288;2023-03-24T11:18:00;11.68;;;2.22;;
42586;SDS011;28216;53.362;-6.288;2023-03-24T11:20:37;8.05;;;2.15;;
42586;SDS011;28216;53.362;-6.288;2023-03-24T11:25:42;7.90;;;2.17;;
42586;SDS011;28216;53.362;-6.288;2023-03-24T11:28:14;8.05;;;2.38;;
42586;SDS011;28216;53.362;-6.288;2023-03-24T11:30:51;8.02;;;2.10;;
42586;SDS011;28216;53.362;-6.288;2023-03-24T11:33:20;9.32;;;2.05;;
42586;SDS011;28216;53.362;-6.288;2023-03-24T11:38:58;9.20;;;1.88;;
42586;SDS011;28216;53.362;-6.288;2023-03-24T11:41:25;9.48;;;1.92;;
42586;SDS011;28216;53.362;-6.288;2023-03-24T11:46:45;6.43;;;1.58;;
42586;SDS011;28216;53.362;-6.288;2023-03-24T11:49:25;9.50;;;1.58;;
42586;SDS011;28216;53.362;-6.288;2023-03-24T11:51:54;9.45;;;2.00;;
42586;SDS011;28216;53.362;-6.288;2023-03-24T11:54:21;7.63;;;2.08;;
42586;SDS011;28216;53.362;-6.288;2023-03-24T11:56:58;6.38;;;1.70;;
42586;SDS011;28216;53.362;-6.288;2023-03-24T11:59:42;7.85;;;2.00;;
42586;SDS011;28216;53.362;-6.288;2023-03-24T12:10:45;9.02;;;1.95;;
42586;SDS011;28216;53.362;-6.288;2023-03-24T12:23:56;5.57;;;1.50;;
42586;SDS011;28216;53.362;-6.288;2023-03-24T12:26:28;7.13;;;2.00;;
42586;SDS011;28216;53.362;-6.288;2023-03-24T12:31:46;10.55;;;1.67;;
42586;SDS011;28216;53.362;-6.288;2023-03-24T12:42:38;6.43;;;1.70;;
42586;SDS011;28216;53.362;-6.288;2023-03-24T12:45:49;4.90;;;1.33;;
42586;SDS011;28216;53.362;-6.288;2023-03-24T13:01:46;3.92;;;1.35;;
42586;SDS011;28216;53.362;-6.288;2023-03-24T13:04:32;5.82;;;1.25;;
42586;SDS011;28216;53.362;-6.288;2023-03-24T13:17:04;4.63;;;1.40;;
42586;SDS011;28216;53.362;-6.288;2023-03-24T13:19:38;3.83;;;1.25;;
42586;SDS011;28216;53.362;-6.288;2023-03-24T13:22:08;6.13;;;1.45;;
42586;SDS011;28216;53.362;-6.288;2023-03-24T13:24:40;4.68;;;1.25;;
42586;SDS011;28216;53.362;-6.288;2023-03-24T13:41:15;6.97;;;1.33;;
42586;SDS011;28216;53.362;-6.288;2023-03-24T13:43:56;4.88;;;1.35;;
42586;SDS011;28216;53.362;-6.288;2023-03-24T13:46:24;7.47;;;1.50;;
42586;SDS011;28216;53.362;-6.288;2023-03-24T13:48:50;7.40;;;1.55;;
42586;SDS011;28216;53.362;-6.288;2023-03-24T13:54:04;3.97;;;1.47;;
42586;SDS011;28216;53.362;-6.288;2023-03-24T13:56:31;8.45;;;1.67;;
42586;SDS011;28216;53.362;-6.288;2023-03-24T14:01:38;5.72;;;1.50;;
42586;SDS011;28216;53.362;-6.288;2023-03-24T14:06:50;7.18;;;1.40;;
42586;SDS011;28216;53.362;-6.288;2023-03-24T14:09:24;5.13;;;1.20;;
42586;SDS011;28216;53.362;-6.288;2023-03-24T14:14:23;4.88;;;1.38;;
42586;SDS011;28216;53.362;-6.288;2023-03-24T14:16:51;5.65;;;1.85;;
42586;SDS011;28216;53.362;-6.288;2023-03-24T14:19:36;16.05;;;6.13;;
42586;SDS011;28216;53.362;-6.288;2023-03-24T14:27:32;17.27;;;8.40;;
42586;SDS011;28216;53.362;-6.288;2023-03-24T14:32:39;12.18;;;5.15;;
42586;SDS011;28216;53.362;-6.288;2023-03-24T14:38:36;7.97;;;2.53;;
42586;SDS011;28216;53.362;-6.288;2023-03-24T14:40:46;4.93;;;1.10;;
42586;SDS011;28216;53.362;-6.288;2023-03-24T14:43:27;4.20;;;1.20;;
42586;SDS011;28216;53.362;-6.288;2023-03-24T14:48:34;3.67;;;0.85;;
42586;SDS011;28216;53.362;-6.288;2023-03-24T14:51:17;5.85;;;1.30;;
42586;SDS011;28216;53.362;-6.288;2023-03-24T14:54:16;2.38;;;1.05;;
42586;SDS011;28216;53.362;-6.288;2023-03-24T14:57:25;2.13;;;1.02;;
42586;SDS011;28216;53.362;-6.288;2023-03-24T15:07:17;3.38;;;1.08;;
42586;SDS011;28216;53.362;-6.288;2023-03-24T15:09:47;6.35;;;1.25;;
42586;SDS011;28216;53.362;-6.288;2023-03-24T15:12:15;3.05;;;1.05;;
42586;SDS011;28216;53.362;-6.288;2023-03-24T15:17:32;4.00;;;1.13;;
42586;SDS011;28216;53.362;-6.288;2023-03-24T15:33:40;3.13;;;0.95;;
42586;SDS011;28216;53.362;-6.288;2023-03-24T15:39:43;2.67;;;0.90;;
42586;SDS011;28216;53.362;-6.288;2023-03-24T17:08:15;3.28;;;1.10;;
42586;SDS011;28216;53.362;-6.288;2023-03-24T17:10:43;1.88;;;0.98;;
42586;SDS011;28216;53.362;-6.288;2023-03-24T17:13:15;3.90;;;1.50;;
42586;SDS011;28216;53.362;-6.288;2023-03-24T17:15:43;3.95;;;1.40;;
42586;SDS011;28216;53.362;-6.288;2023-03-24T17:18:09;3.13;;;1.30;;
42586;SDS011;28216;53.362;-6.288;2023-03-24T17:20:35;2.10;;;1.02;;
42586;SDS011;28216;53.362;-6.288;2023-03-24T17:23:04;4.60;;;1.17;;
42586;SDS011;28216;53.362;-6.288;2023-03-24T17:25:31;3.53;;;1.20;;
42586;SDS011;28216;53.362;-6.288;2023-03-24T17:27:57;3.15;;;0.95;;
42586;SDS011;28216;53.362;-6.288;2023-03-24T17:30:23;3.38;;;1.25;;
42586;SDS011;28216;53.362;-6.288;2023-03-24T17:32:50;3.63;;;1.40;;
42586;SDS011;28216;53.362;-6.288;2023-03-24T17:35:17;6.40;;;1.70;;
42586;SDS011;28216;53.362;-6.288;2023-03-24T17:40:18;4.45;;;1.42;;
42586;SDS011;28216;53.362;-6.288;2023-03-24T17:42:46;2.15;;;1.35;;
42586;SDS011;28216;53.362;-6.288;2023-03-24T17:45:13;2.35;;;1.25;;
42586;SDS011;28216;53.362;-6.288;2023-03-24T17:47:40;3.33;;;1.48;;
42586;SDS011;28216;53.362;-6.288;2023-03-24T17:50:06;3.65;;;1.90;;
42586;SDS011;28216;53.362;-6.288;2023-03-24T17:52:37;4.20;;;1.48;;
42586;SDS011;28216;53.362;-6.288;2023-03-24T17:55:04;5.32;;;2.00;;
42586;SDS011;28216;53.362;-6.288;2023-03-24T17:57:34;4.03;;;2.20;;
42586;SDS011;28216;53.362;-6.288;2023-03-24T18:00:00;8.57;;;2.15;;
42586;SDS011;28216;53.362;-6.288;2023-03-24T18:02:26;3.72;;;2.03;;
42586;SDS011;28216;53.362;-6.288;2023-03-24T18:04:54;3.22;;;1.70;;
42586;SDS011;28216;53.362;-6.288;2023-03-24T18:07:19;4.35;;;2.60;;
42586;SDS011;28216;53.362;-6.288;2023-03-24T18:09:47;5.85;;;2.63;;
42586;SDS011;28216;53.362;-6.288;2023-03-24T18:12:12;4.57;;;2.58;;
42586;SDS011;28216;53.362;-6.288;2023-03-24T18:14:40;4.15;;;1.98;;
42586;SDS011;28216;53.362;-6.288;2023-03-24T18:17:05;3.45;;;1.67;;
42586;SDS011;28216;53.362;-6.288;2023-03-24T18:19:31;3.25;;;1.50;;
42586;SDS011;28216;53.362;-6.288;2023-03-24T18:21:56;3.25;;;1.45;;
42586;SDS011;28216;53.362;-6.288;2023-03-24T18:24:22;2.65;;;1.45;;
42586;SDS011;28216;53.362;-6.288;2023-03-24T18:26:49;4.63;;;1.60;;
42586;SDS011;28216;53.362;-6.288;2023-03-24T18:29:15;3.58;;;1.60;;
42586;SDS011;28216;53.362;-6.288;2023-03-24T18:31:41;4.88;;;1.58;;
42586;SDS011;28216;53.362;-6.288;2023-03-24T18:34:06;3.67;;;1.55;;
42586;SDS011;28216;53.362;-6.288;2023-03-24T18:36:32;4.80;;;1.50;;
42586;SDS011;28216;53.362;-6.288;2023-03-24T18:38:59;2.63;;;1.23;;
42586;SDS011;28216;53.362;-6.288;2023-03-24T18:41:28;4.18;;;1.90;;
42586;SDS011;28216;53.362;-6.288;2023-03-24T18:43:54;4.47;;;1.20;;
42586;SDS011;28216;53.362;-6.288;2023-03-24T18:46:21;2.58;;;1.42;;
42586;SDS011;28216;53.362;-6.288;2023-03-24T18:48:47;4.47;;;1.50;;
42586;SDS011;28216;53.362;-6.288;2023-03-24T18:51:12;3.53;;;1.50;;
42586;SDS011;28216;53.362;-6.288;2023-03-24T18:53:39;3.72;;;2.28;;
42586;SDS011;28216;53.362;-6.288;2023-03-24T18:56:05;3.72;;;1.55;;
42586;SDS011;28216;53.362;-6.288;2023-03-24T18:58:32;3.75;;;1.30;;
42586;SDS011;28216;53.362;-6.288;2023-03-24T19:01:01;5.05;;;1.63;;
42586;SDS011;28216;53.362;-6.288;2023-03-24T19:03:33;4.47;;;1.80;;
42586;SDS011;28216;53.362;-6.288;2023-03-24T19:06:00;3.58;;;1.20;;
42586;SDS011;28216;53.362;-6.288;2023-03-24T19:08:30;4.18;;;1.60;;
42586;SDS011;28216;53.362;-6.288;2023-03-24T19:10:55;3.10;;;1.50;;
42586;SDS011;28216;53.362;-6.288;2023-03-24T19:13:21;5.60;;;1.27;;
42586;SDS011;28216;53.362;-6.288;2023-03-24T19:15:47;3.35;;;1.40;;
42586;SDS011;28216;53.362;-6.288;2023-03-24T19:18:13;7.15;;;1.60;;
42586;SDS011;28216;53.362;-6.288;2023-03-24T19:20:39;2.83;;;1.40;;
42586;SDS011;28216;53.362;-6.288;2023-03-24T19:23:06;3.83;;;1.27;;
42586;SDS011;28216;53.362;-6.288;2023-03-24T19:25:31;3.45;;;1.20;;
42586;SDS011;28216;53.362;-6.288;2023-03-24T19:27:57;3.13;;;1.38;;
42586;SDS011;28216;53.362;-6.288;2023-03-24T19:30:22;2.58;;;1.50;;
42586;SDS011;28216;53.362;-6.288;2023-03-24T19:32:48;6.45;;;1.70;;
42586;SDS011;28216;53.362;-6.288;2023-03-24T19:35:16;4.90;;;1.80;;
42586;SDS011;28216;53.362;-6.288;2023-03-24T19:37:41;4.85;;;1.60;;
42586;SDS011;28216;53.362;-6.288;2023-03-24T19:40:07;4.05;;;1.58;;
42586;SDS011;28216;53.362;-6.288;2023-03-24T19:42:37;4.80;;;1.40;;
42586;SDS011;28216;53.362;-6.288;2023-03-24T19:45:10;5.97;;;1.60;;
42586;SDS011;28216;53.362;-6.288;2023-03-24T19:47:39;3.70;;;1.42;;
42586;SDS011;28216;53.362;-6.288;2023-03-24T19:50:07;6.50;;;1.90;;
42586;SDS011;28216;53.362;-6.288;2023-03-24T19:52:33;3.70;;;1.50;;
42586;SDS011;28216;53.362;-6.288;2023-03-24T19:55:00;4.63;;;1.90;;
42586;SDS011;28216;53.362;-6.288;2023-03-24T19:57:25;5.95;;;1.77;;
42586;SDS011;28216;53.362;-6.288;2023-03-24T19:59:54;7.40;;;2.45;;
42586;SDS011;28216;53.362;-6.288;2023-03-24T20:02:20;4.70;;;1.70;;
42586;SDS011;28216;53.362;-6.288;2023-03-24T20:04:49;4.60;;;1.95;;
42586;SDS011;28216;53.362;-6.288;2023-03-24T20:07:17;5.30;;;1.90;;
42586;SDS011;28216;53.362;-6.288;2023-03-24T20:09:43;5.32;;;1.90;;
42586;SDS011;28216;53.362;-6.288;2023-03-24T20:12:08;6.88;;;1.92;;
42586;SDS011;28216;53.362;-6.288;2023-03-24T20:14:34;5.32;;;1.90;;
42586;SDS011;28216;53.362;-6.288;2023-03-24T20:17:00;6.65;;;2.08;;
42586;SDS011;28216;53.362;-6.288;2023-03-24T20:19:26;6.10;;;2.20;;
42586;SDS011;28216;53.362;-6.288;2023-03-24T20:21:54;8.82;;;2.08;;
42586;SDS011;28216;53.362;-6.288;2023-03-24T20:24:26;6.53;;;1.88;;
42586;SDS011;28216;53.362;-6.288;2023-03-24T20:33:18;6.85;;;2.28;;
42586;SDS011;28216;53.362;-6.288;2023-03-24T20:35:54;7.55;;;2.40;;
42586;SDS011;28216;53.362;-6.288;2023-03-24T20:38:21;6.45;;;2.10;;
42586;SDS011;28216;53.362;-6.288;2023-03-24T20:40:55;4.45;;;1.80;;
42586;SDS011;28216;53.362;-6.288;2023-03-24T20:43:31;5.35;;;1.88;;
42586;SDS011;28216;53.362;-6.288;2023-03-24T20:46:05;6.97;;;2.10;;
42586;SDS011;28216;53.362;-6.288;2023-03-24T20:48:32;8.50;;;2.10;;
42586;SDS011;28216;53.362;-6.288;2023-03-24T20:53:27;5.88;;;2.00;;
42586;SDS011;28216;53.362;-6.288;2023-03-24T20:55:56;6.72;;;1.88;;
42586;SDS011;28216;53.362;-6.288;2023-03-24T20:58:28;6.75;;;1.98;;
42586;SDS011;28216;53.362;-6.288;2023-03-24T21:00:55;8.52;;;2.20;;
42586;SDS011;28216;53.362;-6.288;2023-03-24T21:03:21;10.85;;;2.22;;
42586;SDS011;28216;53.362;-6.288;2023-03-24T21:05:48;6.63;;;1.90;;
42586;SDS011;28216;53.362;-6.288;2023-03-24T21:08:17;6.20;;;2.03;;
42586;SDS011;28216;53.362;-6.288;2023-03-24T21:10:43;5.50;;;1.92;;
42586;SDS011;28216;53.362;-6.288;2023-03-24T21:13:08;5.53;;;2.08;;
42586;SDS011;28216;53.362;-6.288;2023-03-24T21:15:40;6.60;;;1.92;;
42586;SDS011;28216;53.362;-6.288;2023-03-24T21:18:06;4.63;;;1.50;;
42586;SDS011;28216;53.362;-6.288;2023-03-24T21:20:33;5.22;;;1.70;;
42586;SDS011;28216;53.362;-6.288;2023-03-24T21:22:58;5.70;;;1.40;;
42586;SDS011;28216;53.362;-6.288;2023-03-24T21:25:28;5.35;;;1.98;;
42586;SDS011;28216;53.362;-6.288;2023-03-24T21:27:57;6.40;;;1.30;;
42586;SDS011;28216;53.362;-6.288;2023-03-24T21:30:26;7.18;;;1.60;;
42586;SDS011;28216;53.362;-6.288;2023-03-24T21:32:55;7.70;;;1.35;;
42586;SDS011;28216;53.362;-6.288;2023-03-24T21:35:30;7.15;;;1.73;;
42586;SDS011;28216;53.362;-6.288;2023-03-24T21:37:56;4.80;;;1.20;;
42586;SDS011;28216;53.362;-6.288;2023-03-24T21:40:23;9.20;;;1.60;;
42586;SDS011;28216;53.362;-6.288;2023-03-24T21:42:49;4.63;;;1.30;;
42586;SDS011;28216;53.362;-6.288;2023-03-24T21:45:17;6.30;;;1.50;;
42586;SDS011;28216;53.362;-6.288;2023-03-24T21:47:45;4.57;;;1.50;;
42586;SDS011;28216;53.362;-6.288;2023-03-24T21:50:13;5.20;;;1.42;;
42586;SDS011;28216;53.362;-6.288;2023-03-24T21:52:43;5.38;;;1.58;;
42586;SDS011;28216;53.362;-6.288;2023-03-24T21:55:11;4.78;;;1.65;;
42586;SDS011;28216;53.362;-6.288;2023-03-24T21:57:39;3.83;;;1.30;;
42586;SDS011;28216;53.362;-6.288;2023-03-24T22:00:07;4.40;;;1.58;;
42586;SDS011;28216;53.362;-6.288;2023-03-24T22:02:38;5.32;;;1.30;;
42586;SDS011;28216;53.362;-6.288;2023-03-24T22:05:09;3.65;;;0.88;;
42586;SDS011;28216;53.362;-6.288;2023-03-24T22:07:38;3.60;;;1.30;;
42586;SDS011;28216;53.362;-6.288;2023-03-24T22:10:05;4.13;;;1.70;;
42586;SDS011;28216;53.362;-6.288;2023-03-24T22:12:32;3.90;;;1.17;;
42586;SDS011;28216;53.362;-6.288;2023-03-24T22:14:58;3.92;;;1.40;;
42586;SDS011;28216;53.362;-6.288;2023-03-24T22:17:24;4.55;;;1.30;;
42586;SDS011;28216;53.362;-6.288;2023-03-24T22:19:50;5.15;;;1.50;;
42586;SDS011;28216;53.362;-6.288;2023-03-24T22:22:15;5.13;;;1.45;;
42586;SDS011;28216;53.362;-6.288;2023-03-24T22:24:41;7.93;;;1.70;;
42586;SDS011;28216;53.362;-6.288;2023-03-24T22:27:06;4.38;;;1.35;;
42586;SDS011;28216;53.362;-6.288;2023-03-24T22:29:32;4.85;;;1.30;;
42586;SDS011;28216;53.362;-6.288;2023-03-24T22:31:57;4.53;;;1.48;;
42586;SDS011;28216;53.362;-6.288;2023-03-24T22:34:22;3.72;;;1.70;;
42586;SDS011;28216;53.362;-6.288;2023-03-24T22:36:48;3.78;;;1.75;;
42586;SDS011;28216;53.362;-6.288;2023-03-24T22:39:13;4.78;;;1.90;;
42586;SDS011;28216;53.362;-6.288;2023-03-24T22:41:39;5.80;;;1.65;;
42586;SDS011;28216;53.362;-6.288;2023-03-24T22:44:04;3.95;;;1.30;;
42586;SDS011;28216;53.362;-6.288;2023-03-24T22:46:30;7.13;;;1.65;;
42586;SDS011;28216;53.362;-6.288;2023-03-24T22:48:56;4.90;;;1.80;;
42586;SDS011;28216;53.362;-6.288;2023-03-24T22:51:21;5.50;;;1.58;;
42586;SDS011;28216;53.362;-6.288;2023-03-24T22:53:47;5.43;;;1.33;;
42586;SDS011;28216;53.362;-6.288;2023-03-24T22:56:13;6.60;;;1.83;;
42586;SDS011;28216;53.362;-6.288;2023-03-24T22:58:41;6.53;;;1.90;;
42586;SDS011;28216;53.362;-6.288;2023-03-24T23:01:06;5.82;;;1.40;;
42586;SDS011;28216;53.362;-6.288;2023-03-24T23:03:33;6.40;;;1.75;;
42586;SDS011;28216;53.362;-6.288;2023-03-24T23:05:59;6.95;;;1.60;;
42586;SDS011;28216;53.362;-6.288;2023-03-24T23:08:26;5.20;;;1.30;;
42586;SDS011;28216;53.362;-6.288;2023-03-24T23:10:56;4.35;;;1.50;;
42586;SDS011;28216;53.362;-6.288;2023-03-24T23:13:22;4.22;;;1.50;;
42586;SDS011;28216;53.362;-6.288;2023-03-24T23:15:54;5.63;;;1.80;;
42586;SDS011;28216;53.362;-6.288;2023-03-24T23:18:20;6.07;;;1.95;;
42586;SDS011;28216;53.362;-6.288;2023-03-24T23:20:46;11.45;;;1.73;;
42586;SDS011;28216;53.362;-6.288;2023-03-24T23:23:11;7.70;;;1.73;;
42586;SDS011;28216;53.362;-6.288;2023-03-24T23:25:38;6.53;;;1.60;;
42586;SDS011;28216;53.362;-6.288;2023-03-24T23:28:06;8.48;;;1.70;;
42586;SDS011;28216;53.362;-6.288;2023-03-24T23:30:31;7.55;;;2.20;;
42586;SDS011;28216;53.362;-6.288;2023-03-24T23:32:57;7.38;;;1.73;;
42586;SDS011;28216;53.362;-6.288;2023-03-24T23:35:22;5.75;;;1.80;;
42586;SDS011;28216;53.362;-6.288;2023-03-24T23:37:48;7.22;;;1.98;;
42586;SDS011;28216;53.362;-6.288;2023-03-24T23:40:14;8.00;;;2.00;;
42586;SDS011;28216;53.362;-6.288;2023-03-24T23:42:41;9.77;;;2.17;;
42586;SDS011;28216;53.362;-6.288;2023-03-24T23:45:11;7.82;;;1.98;;
42586;SDS011;28216;53.362;-6.288;2023-03-24T23:47:40;6.30;;;1.92;;
42586;SDS011;28216;53.362;-6.288;2023-03-24T23:50:07;11.68;;;2.47;;
42586;SDS011;28216;53.362;-6.288;2023-03-24T23:52:33;7.45;;;1.90;;
42586;SDS011;28216;53.362;-6.288;2023-03-24T23:54:59;10.23;;;1.77;;
42586;SDS011;28216;53.362;-6.288;2023-03-24T23:57:26;6.25;;;1.77;;
42586;SDS011;28216;53.362;-6.288;2023-03-24T23:59:52;9.60;;;1.95;;
